createdAt,value
2016-04-11T15:20:36.524Z,21.89
2016-04-11T15:21:36.463Z,22.46
2016-04-11T15:22:36.279Z,23.11
2016-04-11T15:23:36.079Z,23.19
2016-04-11T15:24:35.941Z,23.94
2016-04-11T15:25:35.959Z,24.13
2016-04-11T15:26:36.009Z,24.3
2016-04-11T15:27:35.996Z,25.36
2016-04-11T15:28:36.623Z,25.45
2016-04-11T15:29:35.892Z,25.92
2016-04-11T15:30:36.113Z,26.1
2016-04-11T15:31:35.834Z,26.76
2016-04-11T15:32:35.978Z,27.04
2016-04-11T15:33:35.871Z,27.12
2016-04-11T15:34:35.795Z,27.59
2016-04-11T15:35:35.830Z,27.89
2016-04-11T15:36:35.879Z,27.68
2016-04-11T15:37:35.881Z,27.86
2016-04-11T15:38:35.869Z,28.54
2016-04-11T15:39:36.044Z,28.53
2016-04-11T15:40:35.812Z,28.8
2016-04-11T15:41:36.300Z,28.51
2016-04-11T15:42:35.880Z,28.51
2016-04-11T15:43:35.680Z,28.69
2016-04-11T15:44:35.667Z,29.17
2016-04-11T15:45:35.060Z,28.69
2016-04-11T15:46:37.031Z,28.69
2016-04-11T15:47:35.721Z,28.97
2016-04-11T15:48:35.693Z,29.46
2016-04-11T15:49:35.695Z,28.87
2016-04-11T15:50:35.667Z,29.74
2016-04-11T15:51:35.623Z,29.63
2016-04-11T15:52:35.626Z,29.71
2016-04-11T15:53:37.285Z,30
2016-04-11T15:54:35.584Z,30.18
2016-04-11T15:55:35.493Z,30.38
2016-04-11T15:56:35.932Z,30.27
2016-04-11T15:57:35.765Z,30.27
2016-04-11T15:58:35.798Z,30.75
2016-04-11T15:59:35.457Z,30.35
2016-04-11T16:00:35.459Z,31.12
2016-04-11T16:01:35.415Z,30.93
2016-04-11T16:02:35.449Z,30.83
2016-04-11T16:03:35.405Z,31.4
2016-04-11T16:04:35.393Z,31.3
2016-04-11T16:05:35.520Z,31.3
2016-04-11T16:06:35.476Z,31.78
2016-04-11T16:07:35.353Z,31.49
2016-04-11T16:08:35.449Z,31.57
2016-04-11T16:09:35.437Z,31.78
2016-04-11T16:10:35.565Z,31.76
2016-04-11T16:11:35.302Z,31.48
2016-04-11T16:12:36.304Z,31.48
2016-04-11T16:13:37.651Z,32.15
2016-04-11T16:14:35.278Z,31.96
2016-04-11T16:15:49.827Z,31.96
2016-04-11T16:16:35.283Z,31.96
2016-04-11T16:17:37.897Z,32.06
2016-04-11T16:18:35.164Z,31.86
2016-04-11T16:19:35.385Z,31.96
2016-04-11T16:20:35.638Z,31.96
2016-04-11T16:21:37.422Z,31.86
2016-04-11T16:22:35.285Z,31.78
2016-04-11T16:23:35.396Z,31.78
2016-04-11T16:24:35.071Z,31.4
2016-04-11T16:25:37.824Z,31.51
2016-04-11T16:26:48.748Z,31.78
2016-04-11T16:27:35.829Z,31.51
2016-04-11T16:28:34.925Z,31.6
2016-04-11T16:29:36.038Z,31.6
2016-04-11T16:30:35.087Z,31.8
2016-04-11T16:31:35.402Z,32.28
2016-04-11T16:32:35.296Z,32.38
2016-04-11T16:33:35.001Z,32.18
2016-04-11T16:35:35.647Z,32.09
2016-04-11T16:36:34.790Z,31.7
2016-04-11T16:37:37.934Z,31.62
2016-04-11T16:38:37.875Z,31.43
2016-04-11T16:39:35.033Z,31.44
2016-04-11T16:40:34.755Z,31.54
2016-04-11T16:42:34.806Z,31.73
2016-04-11T16:43:34.825Z,31.54
2016-04-11T16:44:37.875Z,31.44
2016-04-11T16:45:38.144Z,31.44
2016-04-11T16:47:38.339Z,31.83
2016-04-11T16:48:37.327Z,31.54
2016-04-11T16:50:34.675Z,31.91
2016-04-11T16:51:34.631Z,32.31
2016-04-11T16:52:34.776Z,31.91
2016-04-11T16:53:34.684Z,32.28
2016-04-11T16:54:35.093Z,32.28
2016-04-11T16:55:35.377Z,32.09
2016-04-11T16:56:35.098Z,32.28
2016-04-11T16:57:34.976Z,32.65
2016-04-11T16:58:34.713Z,32.73
2016-04-11T16:59:34.450Z,32.92
2016-04-11T17:01:34.955Z,33.68
2016-04-11T17:02:35.052Z,33.29
2016-04-11T17:03:34.852Z,33.1
2016-04-11T17:04:34.432Z,33.47
2016-04-11T17:05:34.747Z,33.57
2016-04-11T17:06:34.407Z,33.84
2016-04-11T17:07:34.472Z,34.42
2016-04-11T17:08:34.302Z,34.13
2016-04-11T17:09:34.618Z,34.4
2016-04-11T17:10:34.340Z,34.59
2016-04-11T17:11:34.357Z,34.5
2016-04-11T17:12:34.251Z,34.4
2016-04-11T17:13:34.207Z,34.67
2016-04-11T17:14:34.131Z,34.77
2016-04-11T17:15:34.134Z,34.96
2016-04-11T17:16:34.137Z,35.25
2016-04-11T17:17:34.826Z,35.44
2016-04-11T17:18:34.064Z,35.33
2016-04-11T17:19:34.067Z,35.71
2016-04-11T17:20:33.256Z,35.52
2016-04-11T17:21:34.151Z,35.33
2016-04-11T17:22:34.028Z,35.62
2016-04-11T17:23:34.124Z,35.7
2016-04-11T17:25:33.988Z,36.08
2016-04-11T17:26:33.944Z,35.7
2016-04-11T17:27:34.025Z,36.08
2016-04-11T17:28:33.888Z,36.37
2016-04-11T17:29:33.875Z,36.16
2016-04-11T17:30:34.252Z,35.97
2016-04-11T17:31:33.989Z,36.25
2016-04-11T17:32:34.024Z,36.45
2016-04-11T17:33:34.010Z,36.54
2016-04-11T17:34:33.716Z,36.45
2016-04-11T17:35:34.235Z,36.72
2016-04-11T17:36:33.956Z,36.62
2016-04-11T17:37:33.912Z,36.62
2016-04-11T17:38:33.680Z,36.72
2016-04-11T17:39:33.698Z,36.62
2016-04-11T17:40:33.826Z,36.53
2016-04-11T17:41:47.501Z,36.91
2016-04-11T17:42:36.831Z,37.1
2016-04-11T17:43:33.882Z,37.1
2016-04-11T17:44:33.602Z,37.1
2016-04-11T17:45:34.276Z,37.18
2016-04-11T17:46:33.686Z,36.99
2016-04-11T17:47:33.704Z,37.68
2016-04-11T17:48:33.520Z,37.37
2016-04-11T17:49:33.522Z,37.27
2016-04-11T17:50:33.619Z,37.37
2016-04-11T17:51:33.778Z,37.66
2016-04-11T17:52:33.889Z,37.47
2016-04-11T17:53:32.611Z,37.95
2016-04-11T17:54:33.457Z,37.85
2016-04-11T17:56:33.884Z,37.93
2016-04-11T17:57:33.325Z,38.02
2016-04-11T17:58:33.515Z,38.12
2016-04-11T18:00:47.052Z,38.02
2016-04-11T18:01:33.242Z,38.12
2016-04-11T18:02:33.775Z,38.12
2016-04-11T18:03:33.325Z,38.02
2016-04-11T18:04:32.375Z,38.32
2016-04-11T18:05:33.659Z,38.12
2016-04-11T18:06:33.177Z,38.32
2016-04-11T18:07:33.618Z,38.51
2016-04-11T18:08:33.242Z,38.51
2016-04-11T18:09:33.431Z,38.51
2016-04-11T18:10:33.153Z,38.39
2016-04-11T18:11:33.186Z,38.29
2016-04-11T18:12:33.674Z,38.49
2016-04-11T18:13:33.567Z,38.29
2016-04-11T18:14:34.132Z,38.2
2016-04-11T18:15:33.775Z,37.91
2016-04-11T18:16:34.028Z,38.49
2016-04-11T18:17:34.749Z,38.96
2016-04-11T18:18:33.519Z,38.87
2016-04-11T18:19:33.474Z,38.87
2016-04-11T18:20:33.430Z,39.16
2016-04-11T18:21:33.527Z,39.06
2016-04-11T18:22:33.872Z,39.06
2016-04-11T18:23:33.594Z,39.16
2016-04-11T18:24:33.455Z,39.16
2016-04-11T18:25:34.522Z,39.16
2016-04-11T18:26:46.727Z,39.26
2016-04-11T18:27:34.135Z,39.04
2016-04-11T18:28:36.826Z,39.14
2016-04-11T18:29:33.469Z,39.33
2016-04-11T18:30:33.456Z,39.43
2016-04-11T18:31:33.256Z,39.43
2016-04-11T18:33:34.559Z,39.62
2016-04-11T18:34:33.826Z,39.43
2016-04-11T18:35:46.642Z,39.33
2016-04-11T18:36:34.472Z,39.33
2016-04-11T18:37:46.648Z,39.33
2016-04-11T18:38:33.478Z,39.33
2016-04-11T18:39:33.184Z,39.43
2016-04-11T18:40:33.062Z,39.23
2016-04-11T18:41:33.189Z,39.62
2016-04-11T18:42:33.411Z,39.62
2016-04-11T18:43:33.256Z,39.81
2016-04-11T18:44:32.947Z,39.6
2016-04-11T18:45:33.466Z,39.89
2016-04-11T18:46:36.109Z,39.89
2016-04-11T18:47:33.706Z,39.81
2016-04-11T18:48:33.037Z,40.37
2016-04-11T18:49:32.914Z,40.37
2016-04-11T18:50:32.870Z,40.17
2016-04-11T18:51:32.811Z,40.56
2016-04-11T18:52:32.985Z,40.47
2016-04-11T18:53:32.769Z,40.27
2016-04-11T18:54:32.771Z,41.04
2016-04-11T18:55:34.196Z,40.47
2016-04-11T18:56:34.104Z,40.08
2016-04-11T18:57:32.763Z,40.08
2016-04-11T18:58:33.126Z,40.37
2016-04-11T18:59:32.488Z,40.47
2016-04-11T19:00:32.663Z,40.56
2016-04-11T19:01:32.618Z,40.47
2016-04-11T19:02:32.835Z,40.66
2016-04-11T19:03:32.602Z,40.35
2016-04-11T19:04:32.559Z,40.92
2016-04-11T19:05:32.765Z,40.54
2016-04-11T19:06:32.501Z,40.73
2016-04-11T19:07:32.473Z,41.11
2016-04-11T19:08:32.591Z,40.92
2016-04-11T19:09:32.624Z,40.83
2016-04-11T19:10:32.565Z,40.83
2016-04-11T19:11:33.005Z,40.92
2016-04-11T19:12:32.476Z,40.92
2016-04-11T19:13:32.401Z,40.92
2016-04-11T19:14:32.498Z,41.11
2016-04-11T19:15:32.798Z,41.02
2016-04-11T19:16:32.301Z,41.31
2016-04-11T19:17:32.381Z,41.31
2016-04-11T19:18:32.962Z,41.21
2016-04-11T19:19:32.386Z,41.4
2016-04-11T19:20:32.264Z,41.21
2016-04-11T19:21:32.235Z,41.21
2016-04-11T19:22:32.442Z,41.4
2016-04-11T19:23:33.023Z,41.31
2016-04-11T19:24:32.243Z,41.69
2016-04-11T19:25:32.078Z,41.6
2016-04-11T19:26:32.713Z,41.5
2016-04-11T19:27:32.768Z,41.5
2016-04-11T19:28:31.954Z,41.5
2016-04-11T19:29:32.279Z,41.88
2016-04-11T19:31:32.675Z,41.5
2016-04-11T19:32:31.817Z,41.5
2016-04-11T19:33:31.586Z,41.77
2016-04-11T19:34:31.745Z,41.67
2016-04-11T19:35:31.561Z,41.86
2016-04-11T19:36:32.406Z,41.86
2016-04-11T19:37:31.472Z,41.77
2016-04-11T19:38:31.662Z,41.96
2016-04-11T19:39:31.555Z,42.05
2016-04-11T19:40:31.527Z,41.96
2016-04-11T19:41:31.873Z,42.05
2016-04-11T19:42:32.594Z,42.24
2016-04-11T19:43:31.707Z,42.05
2016-04-11T19:44:32.085Z,42.24
2016-04-11T19:45:31.930Z,42.14
2016-04-11T19:46:31.605Z,42.44
2016-04-11T19:47:31.671Z,42.24
2016-04-11T19:48:31.846Z,42.34
2016-04-11T19:49:31.802Z,42.24
2016-04-11T19:50:31.913Z,42.34
2016-04-11T19:51:31.571Z,42.34
2016-04-11T19:52:31.699Z,42.34
2016-04-11T19:53:32.062Z,42.44
2016-04-11T19:54:31.455Z,42.53
2016-04-11T19:55:31.582Z,42.72
2016-04-11T19:56:31.538Z,42.53
2016-04-11T19:57:31.479Z,42.63
2016-04-11T19:58:31.372Z,42.44
2016-04-11T19:59:31.578Z,42.63
2016-04-11T20:00:32.862Z,42.63
2016-04-11T20:01:31.287Z,42.72
2016-04-11T20:02:31.398Z,42.82
2016-04-11T20:03:31.448Z,42.7
2016-04-11T20:04:31.341Z,42.9
2016-04-11T20:05:31.267Z,42.8
2016-04-11T20:06:31.675Z,42.9
2016-04-11T20:07:31.334Z,42.9
2016-04-11T20:08:31.167Z,43.1
2016-04-11T20:09:33.271Z,42.9
2016-04-11T20:10:31.242Z,42.99
2016-04-11T20:11:31.105Z,43.18
2016-04-11T20:12:31.091Z,43.47
2016-04-11T20:13:34.454Z,43.08
2016-04-11T20:14:31.238Z,43.37
2016-04-11T20:15:31.771Z,43.27
2016-04-11T20:16:31.446Z,43.18
2016-04-11T20:17:31.214Z,43.37
2016-04-11T20:18:44.342Z,43.37
2016-04-11T20:19:30.937Z,43.27
2016-04-11T20:20:30.863Z,43.56
2016-04-11T20:21:31.115Z,43.47
2016-04-11T20:22:30.868Z,43.66
2016-04-11T20:23:30.840Z,43.56
2016-04-11T20:24:30.858Z,43.63
2016-04-11T20:25:30.829Z,43.76
2016-04-11T20:26:31.020Z,43.66
2016-04-11T20:27:30.945Z,43.56
2016-04-11T20:28:30.853Z,43.56
2016-04-11T20:30:30.984Z,43.76
2016-04-11T20:31:30.548Z,44.12
2016-04-11T20:32:30.380Z,43.76
2016-04-11T20:33:31.819Z,43.92
2016-04-11T20:34:43.823Z,44.02
2016-04-11T20:35:30.278Z,43.92
2016-04-11T20:36:30.061Z,43.63
2016-04-11T20:37:29.986Z,43.92
2016-04-11T20:38:30.036Z,44.21
2016-04-11T20:39:29.961Z,44.4
2016-04-11T20:40:31.432Z,44.31
2016-04-11T20:41:30.685Z,44.21
2016-04-11T20:42:29.843Z,44.4
2016-04-11T20:43:29.894Z,44.31
2016-04-11T20:44:30.615Z,44.31
2016-04-11T20:45:28.961Z,44.12
2016-04-11T20:46:29.948Z,44.12
2016-04-11T20:47:29.921Z,44.02
2016-04-11T20:48:30.516Z,44.5
2016-04-11T20:49:29.707Z,44.59
2016-04-11T20:50:30.100Z,44.12
2016-04-11T20:51:29.837Z,44.31
2016-04-11T20:52:28.855Z,44.5
2016-04-11T20:53:29.999Z,44.69
2016-04-11T20:54:29.673Z,44.69
2016-04-11T20:55:29.659Z,44.59
2016-04-11T20:56:29.898Z,44.79
2016-04-11T20:57:29.681Z,44.5
2016-04-11T20:59:29.639Z,44.29
2016-04-11T21:00:29.440Z,44.86
2016-04-11T21:01:30.489Z,44.67
2016-04-11T21:02:28.929Z,44.38
2016-04-11T21:03:29.447Z,44.95
2016-04-11T21:04:29.371Z,44.95
2016-04-11T21:05:29.359Z,44.95
2016-04-11T21:06:29.315Z,45.15
2016-04-11T21:07:29.333Z,45.05
2016-04-11T21:08:30.070Z,45.15
2016-04-11T21:09:29.557Z,45.15
2016-04-11T21:10:43.888Z,45.15
2016-04-11T21:11:29.406Z,45.24
2016-04-11T21:12:29.597Z,45.15
2016-04-11T21:13:29.474Z,45.15
2016-04-11T21:14:30.024Z,45.24
2016-04-11T21:15:30.105Z,45.43
2016-04-11T21:16:29.091Z,45.34
2016-04-11T21:17:29.109Z,45.34
2016-04-11T21:18:29.909Z,45.53
2016-04-11T21:19:29.616Z,45.24
2016-04-11T21:20:30.134Z,45.34
2016-04-11T21:21:43.136Z,45.24
2016-04-11T21:22:28.983Z,45.15
2016-04-11T21:23:28.892Z,45.15
2016-04-11T21:24:28.926Z,45.15
2016-04-11T21:25:28.897Z,45.24
2016-04-11T21:26:28.978Z,45.24
2016-04-11T21:27:28.886Z,45.34
2016-04-11T21:28:28.843Z,45.53
2016-04-11T21:29:28.814Z,45.62
2016-04-11T21:30:29.050Z,45.6
2016-04-11T21:31:28.881Z,45.43
2016-04-11T21:32:29.292Z,45.53
2016-04-11T21:33:28.778Z,45.53
2016-04-11T21:34:28.686Z,45.81
2016-04-11T21:35:28.642Z,45.51
2016-04-11T21:36:27.769Z,45.53
2016-04-11T21:37:28.664Z,45.34
2016-04-11T21:38:28.666Z,45.81
2016-04-11T21:39:42.763Z,45.79
2016-04-11T21:40:29.937Z,45.79
2016-04-11T21:41:29.019Z,45.51
2016-04-11T21:42:28.458Z,45.51
2016-04-11T21:43:28.741Z,45.79
2016-04-11T21:44:28.416Z,45.79
2016-04-11T21:45:28.811Z,45.89
2016-04-11T21:46:28.532Z,46.08
2016-04-11T21:47:28.393Z,45.89
2016-04-11T21:48:28.490Z,46.08
2016-04-11T21:49:28.304Z,46.17
2016-04-11T21:50:28.324Z,46.27
2016-04-11T21:51:28.748Z,46.27
2016-04-11T21:52:28.235Z,46.27
2016-04-11T21:53:28.237Z,46.46
2016-04-11T21:54:28.226Z,46.94
2016-04-11T21:55:28.181Z,46.66
2016-04-11T21:56:28.167Z,46.84
2016-04-11T21:57:28.108Z,46.66
2016-04-11T21:58:28.376Z,46.66
2016-04-11T21:59:28.082Z,46.75
2016-04-11T22:00:28.600Z,46.84
2016-04-11T22:01:28.040Z,46.56
2016-04-11T22:02:27.997Z,46.46
2016-04-11T22:03:28.061Z,46.56
2016-04-11T22:05:28.489Z,46.75
2016-04-11T22:06:28.179Z,46.75
2016-04-11T22:07:27.945Z,46.75
2016-04-11T22:08:27.901Z,46.66
2016-04-11T22:09:27.700Z,46.94
2016-04-11T22:10:28.206Z,47.03
2016-04-11T22:11:27.862Z,46.94
2016-04-11T22:12:28.789Z,46.84
2016-04-11T22:13:27.883Z,46.94
2016-04-11T22:14:27.760Z,47.03
2016-04-11T22:15:27.765Z,47.03
2016-04-11T22:16:27.674Z,47.13
2016-04-11T22:17:27.926Z,47.01
2016-04-11T22:18:28.076Z,47.11
2016-04-11T22:19:27.578Z,47.11
2016-04-11T22:20:27.575Z,46.92
2016-04-11T22:21:27.687Z,47.2
2016-04-11T22:22:27.565Z,47.11
2016-04-11T22:23:27.505Z,46.92
2016-04-11T22:24:27.680Z,47.3
2016-04-11T22:25:28.276Z,47.01
2016-04-11T22:26:27.467Z,47.11
2016-04-11T22:27:27.406Z,47.11
2016-04-11T22:28:27.362Z,47.39
2016-04-11T22:29:27.397Z,47.2
2016-04-11T22:30:27.336Z,47.39
2016-04-11T22:31:27.402Z,47.49
2016-04-11T22:32:27.295Z,47.2
2016-04-11T22:33:27.282Z,47.49
2016-04-11T22:34:27.238Z,47.39
2016-04-11T22:35:27.319Z,47.39
2016-04-11T22:36:27.588Z,47.39
2016-04-11T22:37:27.211Z,47.3
2016-04-11T22:38:28.130Z,47.39
2016-04-11T22:39:27.331Z,47.39
2016-04-11T22:41:27.467Z,47.39
2016-04-11T22:42:27.297Z,47.3
2016-04-11T22:43:27.597Z,47.68
2016-04-11T22:44:27.504Z,47.49
2016-04-11T22:45:27.288Z,47.87
2016-04-11T22:46:27.276Z,47.58
2016-04-11T22:47:27.252Z,47.78
2016-04-11T22:48:27.229Z,47.87
2016-04-11T22:49:27.331Z,47.78
2016-04-11T22:50:28.073Z,47.87
2016-04-11T22:51:27.331Z,48.07
2016-04-11T22:52:27.149Z,47.97
2016-04-11T22:53:27.121Z,47.87
2016-04-11T22:54:28.469Z,47.87
2016-04-11T22:55:27.068Z,47.97
2016-04-11T22:56:27.214Z,47.78
2016-04-11T22:57:27.124Z,47.87
2016-04-11T22:58:27.017Z,48.16
2016-04-11T22:59:26.364Z,48.25
2016-04-11T23:00:26.977Z,48.23
2016-04-11T23:01:26.949Z,47.94
2016-04-11T23:02:27.405Z,48.13
2016-04-11T23:03:26.908Z,48.33
2016-04-11T23:04:26.880Z,48.33
2016-04-11T23:05:26.868Z,48.33
2016-04-11T23:06:26.980Z,48.42
2016-04-11T23:07:26.827Z,48.52
2016-04-11T23:08:26.814Z,48.42
2016-04-11T23:09:26.800Z,48.61
2016-04-11T23:10:26.757Z,48.52
2016-04-11T23:11:26.728Z,48.52
2016-04-11T23:12:26.699Z,48.52
2016-04-11T23:13:26.640Z,48.13
2016-04-11T23:14:26.830Z,48.52
2016-04-11T23:15:26.613Z,48.13
2016-04-11T23:16:26.929Z,48.52
2016-04-11T23:17:26.822Z,48.42
2016-04-11T23:18:26.621Z,48.52
2016-04-11T23:19:26.531Z,48.61
2016-04-11T23:20:26.534Z,48.9
2016-04-11T23:21:26.849Z,48.9
2016-04-11T23:22:26.477Z,48.8
2016-04-11T23:23:26.432Z,48.9
2016-04-11T23:24:26.591Z,48.8
2016-04-11T23:25:26.391Z,48.99
2016-04-11T23:26:26.659Z,48.71
2016-04-11T23:27:26.334Z,48.9
2016-04-11T23:28:26.321Z,48.8
2016-04-11T23:29:26.276Z,48.9
2016-04-11T23:30:26.279Z,48.8
2016-04-11T23:31:26.298Z,48.61
2016-04-11T23:32:26.284Z,48.99
2016-04-11T23:33:26.397Z,48.9
2016-04-11T23:34:26.478Z,48.99
2016-04-11T23:35:26.167Z,48.8
2016-04-11T23:36:26.139Z,48.8
2016-04-11T23:37:26.189Z,48.9
2016-04-11T23:38:26.098Z,48.71
2016-04-11T23:39:26.086Z,48.8
2016-04-11T23:40:26.041Z,48.9
2016-04-11T23:41:26.137Z,49.18
2016-04-11T23:42:25.999Z,49.09
2016-04-11T23:43:25.955Z,49.09
2016-04-11T23:44:26.020Z,49.09
2016-04-11T23:45:25.944Z,49.09
2016-04-11T23:46:26.072Z,49.28
2016-04-11T23:47:25.888Z,49.18
2016-04-11T23:48:25.874Z,49.38
2016-04-11T23:49:25.940Z,49.28
2016-04-11T23:50:25.801Z,49.38
2016-04-11T23:51:25.773Z,49.38
2016-04-11T23:52:25.791Z,49.38
2016-04-11T23:53:25.748Z,49.18
2016-04-11T23:54:25.718Z,49.54
2016-04-11T23:55:25.674Z,49.18
2016-04-11T23:56:25.662Z,49.16
2016-04-11T23:57:25.665Z,49.07
2016-04-11T23:58:25.651Z,49.76
2016-04-11T23:59:25.482Z,49.47
